sensor_id;sensor_type;location;lat;lon;timestamp;pressure;altitude;pressure_sealevel;temperature;humidity
12973;BME280;6551;51.056;9.466;2023-04-06T00:02:19;97851.72;;;15.12;47.44
12973;BME280;6551;51.056;9.466;2023-04-06T00:04:45;97849.84;;;15.12;47.19
12973;BME280;6551;51.056;9.466;2023-04-06T00:07:12;97837.56;;;15.16;47.73
12973;BME280;6551;51.056;9.466;2023-04-06T00:09:39;97837.81;;;15.15;47.97
12973;BME280;6551;51.056;9.466;2023-04-06T00:12:06;97835.63;;;15.29;46.89
12973;BME280;6551;51.056;9.466;2023-04-06T00:14:32;97839.34;;;15.28;47.18
12973;BME280;6551;51.056;9.466;2023-04-06T00:16:58;97830.34;;;15.34;47.05
12973;BME280;6551;51.056;9.466;2023-04-06T00:19:25;97828.88;;;15.26;47.44
12973;BME280;6551;51.056;9.466;2023-04-06T00:21:50;97820.34;;;15.12;47.58
12973;BME280;6551;51.056;9.466;2023-04-06T00:24:17;97830.91;;;15.19;47.66
12973;BME280;6551;51.056;9.466;2023-04-06T00:26:43;97825.38;;;15.42;46.55
12973;BME280;6551;51.056;9.466;2023-04-06T00:29:09;97819.38;;;15.35;47.54
12973;BME280;6551;51.056;9.466;2023-04-06T00:31:34;97810.19;;;15.14;47.36
12973;BME280;6551;51.056;9.466;2023-04-06T00:34:03;97806.44;;;15.15;47.76
12973;BME280;6551;51.056;9.466;2023-04-06T00:36:28;97807.50;;;15.14;47.95
12973;BME280;6551;51.056;9.466;2023-04-06T00:38:56;97807.16;;;15.11;48.16
12973;BME280;6551;51.056;9.466;2023-04-06T00:41:22;97803.50;;;15.00;47.84
12973;BME280;6551;51.056;9.466;2023-04-06T00:43:48;97802.06;;;14.93;47.96
12973;BME280;6551;51.056;9.466;2023-04-06T00:46:13;97791.56;;;14.91;48.08
12973;BME280;6551;51.056;9.466;2023-04-06T00:48:41;97791.06;;;14.94;47.64
12973;BME280;6551;51.056;9.466;2023-04-06T00:51:07;97792.53;;;14.69;48.28
12973;BME280;6551;51.056;9.466;2023-04-06T00:53:34;97795.53;;;14.72;48.39
12973;BME280;6551;51.056;9.466;2023-04-06T00:56:01;97788.84;;;14.75;48.78
12973;BME280;6551;51.056;9.466;2023-04-06T00:58:26;97781.50;;;14.37;49.14
12973;BME280;6551;51.056;9.466;2023-04-06T01:00:53;97780.25;;;14.73;48.73
12973;BME280;6551;51.056;9.466;2023-04-06T01:03:19;97785.94;;;14.59;48.94
12973;BME280;6551;51.056;9.466;2023-04-06T01:05:46;97776.34;;;14.97;47.96
12973;BME280;6551;51.056;9.466;2023-04-06T01:08:13;97778.47;;;14.78;47.91
12973;BME280;6551;51.056;9.466;2023-04-06T01:10:39;97780.94;;;14.80;48.35
12973;BME280;6551;51.056;9.466;2023-04-06T01:13:05;97779.88;;;14.52;48.55
12973;BME280;6551;51.056;9.466;2023-04-06T01:15:32;97773.44;;;14.82;47.56
12973;BME280;6551;51.056;9.466;2023-04-06T01:17:59;97772.97;;;14.85;47.81
12973;BME280;6551;51.056;9.466;2023-04-06T01:20:25;97763.44;;;14.77;48.22
12973;BME280;6551;51.056;9.466;2023-04-06T01:22:51;97758.34;;;14.92;48.23
12973;BME280;6551;51.056;9.466;2023-04-06T01:25:18;97757.50;;;14.92;47.60
12973;BME280;6551;51.056;9.466;2023-04-06T01:27:44;97761.00;;;14.92;47.50
12973;BME280;6551;51.056;9.466;2023-04-06T01:30:11;97759.31;;;14.86;47.75
12973;BME280;6551;51.056;9.466;2023-04-06T01:32:38;97767.53;;;14.80;47.65
12973;BME280;6551;51.056;9.466;2023-04-06T01:35:04;97762.66;;;14.77;48.48
12973;BME280;6551;51.056;9.466;2023-04-06T01:37:31;97762.84;;;14.58;48.27
12973;BME280;6551;51.056;9.466;2023-04-06T01:39:58;97761.59;;;14.49;48.10
12973;BME280;6551;51.056;9.466;2023-04-06T01:42:25;97761.03;;;14.47;48.80
12973;BME280;6551;51.056;9.466;2023-04-06T01:44:52;97757.81;;;14.45;48.47
12973;BME280;6551;51.056;9.466;2023-04-06T01:47:19;97759.91;;;14.43;48.41
12973;BME280;6551;51.056;9.466;2023-04-06T01:49:45;97761.56;;;14.33;48.54
12973;BME280;6551;51.056;9.466;2023-04-06T01:52:12;97758.19;;;14.82;48.63
12973;BME280;6551;51.056;9.466;2023-04-06T01:54:38;97755.09;;;14.90;48.52
12973;BME280;6551;51.056;9.466;2023-04-06T01:57:04;97753.03;;;14.81;48.07
12973;BME280;6551;51.056;9.466;2023-04-06T01:59:31;97754.13;;;14.96;48.00
12973;BME280;6551;51.056;9.466;2023-04-06T02:01:57;97749.66;;;14.85;48.48
12973;BME280;6551;51.056;9.466;2023-04-06T02:04:23;97747.19;;;14.84;47.89
12973;BME280;6551;51.056;9.466;2023-04-06T02:06:49;97751.75;;;14.83;47.46
12973;BME280;6551;51.056;9.466;2023-04-06T02:09:15;97752.22;;;14.80;47.96
12973;BME280;6551;51.056;9.466;2023-04-06T02:11:42;97749.13;;;14.88;47.47
12973;BME280;6551;51.056;9.466;2023-04-06T02:14:09;97742.81;;;14.94;47.63
12973;BME280;6551;51.056;9.466;2023-04-06T02:16:35;97743.28;;;14.91;47.13
12973;BME280;6551;51.056;9.466;2023-04-06T02:19:02;97746.72;;;15.03;47.31
12973;BME280;6551;51.056;9.466;2023-04-06T02:21:29;97744.19;;;14.80;47.42
12973;BME280;6551;51.056;9.466;2023-04-06T02:23:55;97751.09;;;14.76;46.81
12973;BME280;6551;51.056;9.466;2023-04-06T02:26:21;97742.16;;;14.71;47.50
12973;BME280;6551;51.056;9.466;2023-04-06T02:28:46;97746.63;;;14.65;47.92
12973;BME280;6551;51.056;9.466;2023-04-06T02:31:13;97745.25;;;14.79;47.92
12973;BME280;6551;51.056;9.466;2023-04-06T02:33:42;97750.13;;;14.82;47.81
12973;BME280;6551;51.056;9.466;2023-04-06T02:36:08;97737.38;;;14.73;47.52
12973;BME280;6551;51.056;9.466;2023-04-06T02:38:34;97737.63;;;14.71;47.87
12973;BME280;6551;51.056;9.466;2023-04-06T02:41:01;97733.88;;;14.89;47.66
12973;BME280;6551;51.056;9.466;2023-04-06T02:43:26;97739.94;;;14.23;49.10
12973;BME280;6551;51.056;9.466;2023-04-06T02:45:52;97737.31;;;14.11;48.69
12973;BME280;6551;51.056;9.466;2023-04-06T02:48:18;97738.84;;;14.07;49.36
12973;BME280;6551;51.056;9.466;2023-04-06T02:50:44;97739.81;;;14.57;48.08
12973;BME280;6551;51.056;9.466;2023-04-06T02:53:10;97739.75;;;14.13;48.63
12973;BME280;6551;51.056;9.466;2023-04-06T02:55:38;97741.97;;;14.16;49.11
12973;BME280;6551;51.056;9.466;2023-04-06T02:58:04;97750.38;;;14.07;48.97
12973;BME280;6551;51.056;9.466;2023-04-06T03:00:29;97745.97;;;14.01;49.33
12973;BME280;6551;51.056;9.466;2023-04-06T03:02:56;97748.22;;;14.49;48.59
12973;BME280;6551;51.056;9.466;2023-04-06T03:05:22;97744.53;;;14.39;48.28
12973;BME280;6551;51.056;9.466;2023-04-06T03:07:48;97741.06;;;14.55;48.19
12973;BME280;6551;51.056;9.466;2023-04-06T03:10:15;97736.53;;;14.55;47.92
12973;BME280;6551;51.056;9.466;2023-04-06T03:12:42;97741.06;;;14.55;47.92
12973;BME280;6551;51.056;9.466;2023-04-06T03:15:09;97733.91;;;14.44;48.36
12973;BME280;6551;51.056;9.466;2023-04-06T03:17:35;97739.38;;;14.49;47.81
12973;BME280;6551;51.056;9.466;2023-04-06T03:20:00;97741.72;;;14.45;48.13
12973;BME280;6551;51.056;9.466;2023-04-06T03:22:26;97736.72;;;14.82;47.55
12973;BME280;6551;51.056;9.466;2023-04-06T03:24:54;97740.78;;;14.68;47.65
12973;BME280;6551;51.056;9.466;2023-04-06T03:27:19;97741.59;;;14.69;47.69
12973;BME280;6551;51.056;9.466;2023-04-06T03:29:45;97736.72;;;14.66;47.60
12973;BME280;6551;51.056;9.466;2023-04-06T03:32:12;97737.78;;;14.64;48.14
12973;BME280;6551;51.056;9.466;2023-04-06T03:34:39;97747.59;;;14.59;48.43
12973;BME280;6551;51.056;9.466;2023-04-06T03:37:05;97739.94;;;14.51;48.44
12973;BME280;6551;51.056;9.466;2023-04-06T03:39:30;97738.50;;;14.60;47.47
12973;BME280;6551;51.056;9.466;2023-04-06T03:41:57;97737.44;;;14.61;47.00
12973;BME280;6551;51.056;9.466;2023-04-06T03:44:23;97746.69;;;14.53;48.21
12973;BME280;6551;51.056;9.466;2023-04-06T03:46:49;97741.88;;;14.39;48.20
12973;BME280;6551;51.056;9.466;2023-04-06T03:49:15;97745.16;;;14.57;48.08
12973;BME280;6551;51.056;9.466;2023-04-06T03:51:41;97735.72;;;14.72;47.58
12973;BME280;6551;51.056;9.466;2023-04-06T03:54:08;97739.63;;;14.64;48.11
12973;BME280;6551;51.056;9.466;2023-04-06T03:56:36;97745.31;;;14.68;47.40
12973;BME280;6551;51.056;9.466;2023-04-06T03:59:01;97750.22;;;14.71;47.83
12973;BME280;6551;51.056;9.466;2023-04-06T04:01:29;97753.88;;;14.81;47.36
12973;BME280;6551;51.056;9.466;2023-04-06T04:03:56;97747.13;;;14.95;47.27
12973;BME280;6551;51.056;9.466;2023-04-06T04:06:23;97745.75;;;14.93;47.62
12973;BME280;6551;51.056;9.466;2023-04-06T04:08:50;97749.47;;;14.92;47.72
12973;BME280;6551;51.056;9.466;2023-04-06T04:11:15;97751.66;;;14.78;47.23
12973;BME280;6551;51.056;9.466;2023-04-06T04:13:42;97749.06;;;15.00;46.89
12973;BME280;6551;51.056;9.466;2023-04-06T04:16:08;97751.25;;;14.70;47.12
12973;BME280;6551;51.056;9.466;2023-04-06T04:18:33;97752.94;;;14.59;47.34
12973;BME280;6551;51.056;9.466;2023-04-06T04:21:01;97756.94;;;14.73;46.88
12973;BME280;6551;51.056;9.466;2023-04-06T04:23:26;97755.16;;;14.62;47.07
12973;BME280;6551;51.056;9.466;2023-04-06T04:25:52;97750.84;;;14.61;47.03
12973;BME280;6551;51.056;9.466;2023-04-06T04:28:19;97755.88;;;14.57;47.17
12973;BME280;6551;51.056;9.466;2023-04-06T04:30:46;97750.53;;;14.57;47.58
12973;BME280;6551;51.056;9.466;2023-04-06T04:33:13;97751.31;;;14.58;47.45
12973;BME280;6551;51.056;9.466;2023-04-06T04:35:38;97753.97;;;14.41;47.89
12973;BME280;6551;51.056;9.466;2023-04-06T04:38:04;97753.75;;;14.43;47.69
12973;BME280;6551;51.056;9.466;2023-04-06T04:40:30;97749.00;;;14.33;48.15
12973;BME280;6551;51.056;9.466;2023-04-06T04:42:56;97755.66;;;14.19;48.43
12973;BME280;6551;51.056;9.466;2023-04-06T04:45:21;97751.03;;;14.15;48.63
12973;BME280;6551;51.056;9.466;2023-04-06T04:47:47;97750.63;;;14.34;48.51
12973;BME280;6551;51.056;9.466;2023-04-06T04:50:14;97755.25;;;14.39;47.96
12973;BME280;6551;51.056;9.466;2023-04-06T04:52:40;97753.06;;;14.36;48.35
12973;BME280;6551;51.056;9.466;2023-04-06T04:55:06;97755.88;;;14.29;48.01
12973;BME280;6551;51.056;9.466;2023-04-06T04:57:32;97759.25;;;14.36;47.85
12973;BME280;6551;51.056;9.466;2023-04-06T04:59:58;97753.41;;;14.28;48.22
12973;BME280;6551;51.056;9.466;2023-04-06T05:02:25;97757.00;;;14.61;47.56
12973;BME280;6551;51.056;9.466;2023-04-06T05:04:51;97753.69;;;14.26;47.68
12973;BME280;6551;51.056;9.466;2023-04-06T05:07:17;97754.50;;;14.27;47.91
12973;BME280;6551;51.056;9.466;2023-04-06T05:09:45;97757.88;;;14.22;48.03
12973;BME280;6551;51.056;9.466;2023-04-06T05:12:11;97755.69;;;13.91;46.37
12973;BME280;6551;51.056;9.466;2023-04-06T05:14:38;97768.28;;;13.67;47.45
12973;BME280;6551;51.056;9.466;2023-04-06T05:17:05;97756.19;;;13.65;48.56
12973;BME280;6551;51.056;9.466;2023-04-06T05:19:32;97754.94;;;13.44;49.36
12973;BME280;6551;51.056;9.466;2023-04-06T05:21:58;97763.31;;;13.36;50.44
12973;BME280;6551;51.056;9.466;2023-04-06T05:24:26;97757.34;;;13.69;49.51
12973;BME280;6551;51.056;9.466;2023-04-06T05:26:51;97763.53;;;13.97;49.24
12973;BME280;6551;51.056;9.466;2023-04-06T05:29:18;97765.63;;;14.07;49.04
12973;BME280;6551;51.056;9.466;2023-04-06T05:31:46;97757.47;;;14.42;47.87
12973;BME280;6551;51.056;9.466;2023-04-06T05:34:13;97759.63;;;14.90;46.97
12973;BME280;6551;51.056;9.466;2023-04-06T05:36:40;97763.59;;;15.37;46.12
12973;BME280;6551;51.056;9.466;2023-04-06T05:39:07;97763.81;;;15.52;44.17
12973;BME280;6551;51.056;9.466;2023-04-06T05:41:34;97765.63;;;15.85;44.03
12973;BME280;6551;51.056;9.466;2023-04-06T05:44:02;97764.25;;;16.04;43.41
12973;BME280;6551;51.056;9.466;2023-04-06T05:46:29;97769.44;;;16.37;44.34
12973;BME280;6551;51.056;9.466;2023-04-06T05:48:55;97775.41;;;16.66;43.90
12973;BME280;6551;51.056;9.466;2023-04-06T05:51:22;97766.03;;;17.01;42.47
12973;BME280;6551;51.056;9.466;2023-04-06T05:53:48;97767.06;;;17.31;42.27
12973;BME280;6551;51.056;9.466;2023-04-06T05:56:15;97774.06;;;17.69;42.49
12973;BME280;6551;51.056;9.466;2023-04-06T05:58:43;97770.16;;;18.02;40.75
12973;BME280;6551;51.056;9.466;2023-04-06T06:01:12;97767.84;;;18.26;40.63
12973;BME280;6551;51.056;9.466;2023-04-06T06:03:39;97766.59;;;18.48;39.81
12973;BME280;6551;51.056;9.466;2023-04-06T06:06:05;97773.66;;;18.90;40.19
12973;BME280;6551;51.056;9.466;2023-04-06T06:08:32;97775.03;;;19.07;40.13
12973;BME280;6551;51.056;9.466;2023-04-06T06:10:58;97758.81;;;19.17;39.64
12973;BME280;6551;51.056;9.466;2023-04-06T06:13:24;97762.03;;;19.19;39.00
12973;BME280;6551;51.056;9.466;2023-04-06T06:15:50;97766.63;;;19.44;37.83
12973;BME280;6551;51.056;9.466;2023-04-06T06:18:16;97766.88;;;19.53;38.99
12973;BME280;6551;51.056;9.466;2023-04-06T06:20:43;97766.53;;;19.84;39.02
12973;BME280;6551;51.056;9.466;2023-04-06T06:23:09;97762.56;;;19.57;38.25
12973;BME280;6551;51.056;9.466;2023-04-06T06:25:35;97758.47;;;19.79;38.42
12973;BME280;6551;51.056;9.466;2023-04-06T06:28:01;97760.94;;;19.56;38.21
12973;BME280;6551;51.056;9.466;2023-04-06T06:30:27;97756.44;;;20.05;38.35
12973;BME280;6551;51.056;9.466;2023-04-06T06:32:52;97760.72;;;20.26;37.79
12973;BME280;6551;51.056;9.466;2023-04-06T06:35:20;97759.91;;;20.26;38.11
12973;BME280;6551;51.056;9.466;2023-04-06T06:37:46;97760.16;;;20.19;37.76
12973;BME280;6551;51.056;9.466;2023-04-06T06:40:13;97761.97;;;20.44;36.11
12973;BME280;6551;51.056;9.466;2023-04-06T06:42:43;97765.50;;;20.83;34.66
12973;BME280;6551;51.056;9.466;2023-04-06T06:45:10;97761.00;;;21.08;36.14
12973;BME280;6551;51.056;9.466;2023-04-06T06:47:38;97758.59;;;21.01;35.71
12973;BME280;6551;51.056;9.466;2023-04-06T06:50:04;97764.72;;;21.17;33.84
12973;BME280;6551;51.056;9.466;2023-04-06T06:52:31;97758.00;;;21.43;34.81
12973;BME280;6551;51.056;9.466;2023-04-06T06:54:57;97764.78;;;21.40;35.19
12973;BME280;6551;51.056;9.466;2023-04-06T06:57:25;97752.03;;;21.70;33.24
12973;BME280;6551;51.056;9.466;2023-04-06T06:59:50;97758.50;;;21.74;33.61
12973;BME280;6551;51.056;9.466;2023-04-06T07:02:16;97757.25;;;21.61;33.98
12973;BME280;6551;51.056;9.466;2023-04-06T07:04:43;97753.28;;;21.77;32.88
12973;BME280;6551;51.056;9.466;2023-04-06T07:07:08;97754.25;;;21.91;32.77
12973;BME280;6551;51.056;9.466;2023-04-06T07:09:35;97752.66;;;21.85;33.65
12973;BME280;6551;51.056;9.466;2023-04-06T07:12:01;97750.25;;;22.07;33.41
12973;BME280;6551;51.056;9.466;2023-04-06T07:14:27;97748.66;;;22.06;33.91
12973;BME280;6551;51.056;9.466;2023-04-06T07:16:54;97747.84;;;22.06;33.63
12973;BME280;6551;51.056;9.466;2023-04-06T07:19:20;97746.59;;;21.46;33.05
12973;BME280;6551;51.056;9.466;2023-04-06T07:21:45;97746.78;;;21.54;32.50
12973;BME280;6551;51.056;9.466;2023-04-06T07:24:12;97752.47;;;21.53;33.88
12973;BME280;6551;51.056;9.466;2023-04-06T07:26:41;97747.97;;;21.15;33.53
12973;BME280;6551;51.056;9.466;2023-04-06T07:29:07;97752.97;;;21.55;33.40
12973;BME280;6551;51.056;9.466;2023-04-06T07:31:32;97743.66;;;21.66;33.53
12973;BME280;6551;51.056;9.466;2023-04-06T07:34:00;97750.94;;;21.94;33.20
12973;BME280;6551;51.056;9.466;2023-04-06T07:36:27;97748.41;;;22.03;33.25
12973;BME280;6551;51.056;9.466;2023-04-06T07:38:53;97757.69;;;22.21;33.49
12973;BME280;6551;51.056;9.466;2023-04-06T07:41:19;97753.34;;;22.20;33.10
12973;BME280;6551;51.056;9.466;2023-04-06T07:43:45;97749.22;;;22.46;32.72
12973;BME280;6551;51.056;9.466;2023-04-06T07:46:11;97745.53;;;22.55;32.12
12973;BME280;6551;51.056;9.466;2023-04-06T07:48:39;97748.31;;;23.06;31.70
12973;BME280;6551;51.056;9.466;2023-04-06T07:51:05;97741.28;;;23.38;32.26
12973;BME280;6551;51.056;9.466;2023-04-06T07:53:32;97739.59;;;23.23;27.48
12973;BME280;6551;51.056;9.466;2023-04-06T07:56:01;97740.41;;;23.23;27.84
12973;BME280;6551;51.056;9.466;2023-04-06T07:58:27;97739.38;;;22.68;28.02
12973;BME280;6551;51.056;9.466;2023-04-06T08:00:53;97740.47;;;21.83;27.85
12973;BME280;6551;51.056;9.466;2023-04-06T08:03:20;97741.38;;;21.26;27.92
12973;BME280;6551;51.056;9.466;2023-04-06T08:05:51;97734.75;;;20.20;28.75
12973;BME280;6551;51.056;9.466;2023-04-06T08:08:17;97736.50;;;19.91;29.63
12973;BME280;6551;51.056;9.466;2023-04-06T08:10:45;97737.78;;;20.09;30.55
12973;BME280;6551;51.056;9.466;2023-04-06T08:13:11;97740.91;;;19.72;31.19
12973;BME280;6551;51.056;9.466;2023-04-06T08:15:37;97737.22;;;19.17;29.62
12973;BME280;6551;51.056;9.466;2023-04-06T08:18:04;97732.31;;;19.24;30.74
12973;BME280;6551;51.056;9.466;2023-04-06T08:20:32;97738.28;;;18.91;30.48
12973;BME280;6551;51.056;9.466;2023-04-06T08:22:58;97728.84;;;19.04;30.54
12973;BME280;6551;51.056;9.466;2023-04-06T08:25:23;97731.00;;;18.97;30.58
12973;BME280;6551;51.056;9.466;2023-04-06T08:27:50;97734.50;;;18.62;30.54
12973;BME280;6551;51.056;9.466;2023-04-06T08:30:15;97731.00;;;18.97;30.65
12973;BME280;6551;51.056;9.466;2023-04-06T08:32:42;97735.78;;;19.60;31.01
12973;BME280;6551;51.056;9.466;2023-04-06T08:35:11;97731.22;;;20.30;29.33
12973;BME280;6551;51.056;9.466;2023-04-06T08:37:39;97728.53;;;20.20;29.91
12973;BME280;6551;51.056;9.466;2023-04-06T08:40:05;97728.97;;;20.42;30.15
12973;BME280;6551;51.056;9.466;2023-04-06T08:42:33;97729.47;;;20.49;28.75
12973;BME280;6551;51.056;9.466;2023-04-06T08:45:00;97715.03;;;19.51;29.61
12973;BME280;6551;51.056;9.466;2023-04-06T08:47:26;97718.00;;;19.49;29.76
12973;BME280;6551;51.056;9.466;2023-04-06T08:49:53;97717.25;;;19.03;30.39
12973;BME280;6551;51.056;9.466;2023-04-06T08:52:20;97715.09;;;18.60;30.81
12973;BME280;6551;51.056;9.466;2023-04-06T08:54:48;97707.78;;;18.50;30.97
12973;BME280;6551;51.056;9.466;2023-04-06T08:57:15;97710.22;;;18.92;30.40
12973;BME280;6551;51.056;9.466;2023-04-06T08:59:43;97714.81;;;18.97;31.12
12973;BME280;6551;51.056;9.466;2023-04-06T09:02:16;97722.94;;;18.82;30.89
12973;BME280;6551;51.056;9.466;2023-04-06T09:04:47;97715.63;;;19.02;30.54
12973;BME280;6551;51.056;9.466;2023-04-06T09:07:15;97720.75;;;19.24;30.32
12973;BME280;6551;51.056;9.466;2023-04-06T09:09:41;97722.06;;;19.32;29.56
12973;BME280;6551;51.056;9.466;2023-04-06T09:12:34;97726.66;;;19.16;30.69
12973;BME280;6551;51.056;9.466;2023-04-06T09:15:04;97722.38;;;19.10;29.69
12973;BME280;6551;51.056;9.466;2023-04-06T09:17:32;97726.41;;;19.02;31.11
12973;BME280;6551;51.056;9.466;2023-04-06T09:20:02;97721.25;;;19.31;31.25
12973;BME280;6551;51.056;9.466;2023-04-06T09:22:40;97714.63;;;19.93;29.75
12973;BME280;6551;51.056;9.466;2023-04-06T09:25:09;97718.25;;;20.22;31.19
12973;BME280;6551;51.056;9.466;2023-04-06T09:27:38;97721.63;;;19.94;31.04
12973;BME280;6551;51.056;9.466;2023-04-06T09:30:11;97724.78;;;20.11;31.74
12973;BME280;6551;51.056;9.466;2023-04-06T09:32:52;97719.31;;;20.31;29.59
12973;BME280;6551;51.056;9.466;2023-04-06T09:35:21;97721.28;;;20.10;30.21
12973;BME280;6551;51.056;9.466;2023-04-06T09:37:51;97726.56;;;20.35;30.07
12973;BME280;6551;51.056;9.466;2023-04-06T09:40:19;97720.06;;;20.41;30.67
12973;BME280;6551;51.056;9.466;2023-04-06T09:42:46;97716.34;;;20.27;30.53
12973;BME280;6551;51.056;9.466;2023-04-06T09:45:14;97713.09;;;20.69;30.33
12973;BME280;6551;51.056;9.466;2023-04-06T09:47:46;97714.78;;;20.99;29.26
12973;BME280;6551;51.056;9.466;2023-04-06T09:50:14;97710.84;;;21.68;29.02
12973;BME280;6551;51.056;9.466;2023-04-06T09:52:50;97707.94;;;21.88;28.33
12973;BME280;6551;51.056;9.466;2023-04-06T09:55:36;97706.66;;;20.99;29.81
12973;BME280;6551;51.056;9.466;2023-04-06T09:58:09;97705.19;;;19.80;29.46
12973;BME280;6551;51.056;9.466;2023-04-06T10:00:51;97711.00;;;19.43;30.12
12973;BME280;6551;51.056;9.466;2023-04-06T10:03:35;97710.97;;;18.32;31.26
12973;BME280;6551;51.056;9.466;2023-04-06T10:06:12;97700.88;;;17.82;33.67
12973;BME280;6551;51.056;9.466;2023-04-06T10:08:41;97707.84;;;17.83;32.44
12973;BME280;6551;51.056;9.466;2023-04-06T10:11:15;97699.63;;;18.25;33.08
12973;BME280;6551;51.056;9.466;2023-04-06T10:13:42;97707.41;;;18.11;33.15
12973;BME280;6551;51.056;9.466;2023-04-06T10:16:09;97706.34;;;18.07;32.40
12973;BME280;6551;51.056;9.466;2023-04-06T10:18:39;97694.16;;;17.95;32.44
12973;BME280;6551;51.056;9.466;2023-04-06T10:21:16;97696.09;;;18.04;34.09
12973;BME280;6551;51.056;9.466;2023-04-06T10:23:57;97695.34;;;19.20;32.81
12973;BME280;6551;51.056;9.466;2023-04-06T10:26:25;97696.72;;;19.02;32.79
12973;BME280;6551;51.056;9.466;2023-04-06T10:28:52;97692.91;;;19.39;31.82
12973;BME280;6551;51.056;9.466;2023-04-06T10:31:26;97705.03;;;19.36;31.50
12973;BME280;6551;51.056;9.466;2023-04-06T10:34:02;97697.47;;;19.53;31.79
12973;BME280;6551;51.056;9.466;2023-04-06T10:36:34;97697.00;;;20.00;31.09
12973;BME280;6551;51.056;9.466;2023-04-06T10:39:04;97703.28;;;19.91;32.15
12973;BME280;6551;51.056;9.466;2023-04-06T10:41:35;97696.97;;;20.05;31.42
12973;BME280;6551;51.056;9.466;2023-04-06T10:44:03;97686.72;;;20.07;30.36
12973;BME280;6551;51.056;9.466;2023-04-06T10:46:30;97686.53;;;19.83;30.89
12973;BME280;6551;51.056;9.466;2023-04-06T10:48:56;97697.53;;;18.52;31.56
12973;BME280;6551;51.056;9.466;2023-04-06T10:51:27;97697.53;;;18.52;31.56
12973;BME280;6551;51.056;9.466;2023-04-06T10:53:54;97682.28;;;17.86;33.13
12973;BME280;6551;51.056;9.466;2023-04-06T10:56:24;97685.91;;;18.37;32.45
12973;BME280;6551;51.056;9.466;2023-04-06T10:58:54;97677.59;;;18.74;32.85
12973;BME280;6551;51.056;9.466;2023-04-06T11:01:23;97687.78;;;18.21;32.17
12973;BME280;6551;51.056;9.466;2023-04-06T11:03:52;97693.09;;;18.01;32.80
12973;BME280;6551;51.056;9.466;2023-04-06T11:06:24;97698.81;;;18.25;32.33
12973;BME280;6551;51.056;9.466;2023-04-06T11:08:51;97689.34;;;16.66;32.92
12973;BME280;6551;51.056;9.466;2023-04-06T11:11:22;97693.59;;;16.94;34.64
12973;BME280;6551;51.056;9.466;2023-04-06T11:13:53;97675.69;;;17.10;34.13
12973;BME280;6551;51.056;9.466;2023-04-06T11:16:24;97682.09;;;16.99;34.03
12973;BME280;6551;51.056;9.466;2023-04-06T11:19:05;97682.06;;;17.40;34.46
12973;BME280;6551;51.056;9.466;2023-04-06T11:21:36;97682.56;;;17.32;33.98
12973;BME280;6551;51.056;9.466;2023-04-06T11:24:18;97682.47;;;17.64;33.21
12973;BME280;6551;51.056;9.466;2023-04-06T11:27:03;97671.13;;;17.57;32.08
12973;BME280;6551;51.056;9.466;2023-04-06T11:29:30;97677.25;;;18.20;32.12
12973;BME280;6551;51.056;9.466;2023-04-06T11:32:02;97664.88;;;18.29;32.80
12973;BME280;6551;51.056;9.466;2023-04-06T11:34:30;97668.69;;;18.73;33.03
12973;BME280;6551;51.056;9.466;2023-04-06T11:37:07;97661.69;;;18.67;33.03
12973;BME280;6551;51.056;9.466;2023-04-06T11:39:52;97653.47;;;17.96;32.15
12973;BME280;6551;51.056;9.466;2023-04-06T11:42:26;97659.03;;;17.65;34.44
12973;BME280;6551;51.056;9.466;2023-04-06T11:44:57;97656.69;;;17.88;34.67
12973;BME280;6551;51.056;9.466;2023-04-06T11:47:33;97662.41;;;18.12;33.80
12973;BME280;6551;51.056;9.466;2023-04-06T11:50:10;97658.63;;;18.03;35.27
12973;BME280;6551;51.056;9.466;2023-04-06T11:52:41;97659.91;;;17.85;35.03
12973;BME280;6551;51.056;9.466;2023-04-06T11:55:18;97650.34;;;17.52;34.87
12973;BME280;6551;51.056;9.466;2023-04-06T11:57:46;97652.28;;;17.57;34.74
12973;BME280;6551;51.056;9.466;2023-04-06T12:00:14;97652.09;;;17.89;35.21
12973;BME280;6551;51.056;9.466;2023-04-06T12:02:46;97661.16;;;17.11;33.13
12973;BME280;6551;51.056;9.466;2023-04-06T12:05:13;97647.84;;;16.89;35.27
12973;BME280;6551;51.056;9.466;2023-04-06T12:07:40;97657.34;;;16.06;35.36
12973;BME280;6551;51.056;9.466;2023-04-06T12:10:06;97652.56;;;15.87;37.13
12973;BME280;6551;51.056;9.466;2023-04-06T12:12:32;97655.44;;;16.02;36.74
12973;BME280;6551;51.056;9.466;2023-04-06T12:14:58;97643.28;;;15.72;37.10
12973;BME280;6551;51.056;9.466;2023-04-06T12:17:26;97649.69;;;15.93;37.77
12973;BME280;6551;51.056;9.466;2023-04-06T12:19:52;97646.53;;;16.28;36.73
12973;BME280;6551;51.056;9.466;2023-04-06T12:22:18;97625.88;;;16.33;37.40
12973;BME280;6551;51.056;9.466;2023-04-06T12:24:45;97649.31;;;16.38;36.92
12973;BME280;6551;51.056;9.466;2023-04-06T12:27:11;97640.56;;;15.94;38.01
12973;BME280;6551;51.056;9.466;2023-04-06T12:29:39;97660.25;;;15.78;37.49
12973;BME280;6551;51.056;9.466;2023-04-06T12:32:05;97639.22;;;16.18;38.41
12973;BME280;6551;51.056;9.466;2023-04-06T12:34:32;97631.28;;;16.65;37.02
12973;BME280;6551;51.056;9.466;2023-04-06T12:36:59;97624.81;;;17.08;37.60
12973;BME280;6551;51.056;9.466;2023-04-06T12:39:27;97638.94;;;16.83;36.85
12973;BME280;6551;51.056;9.466;2023-04-06T12:41:53;97644.16;;;16.63;35.86
12973;BME280;6551;51.056;9.466;2023-04-06T12:44:19;97628.94;;;16.74;35.30
12973;BME280;6551;51.056;9.466;2023-04-06T12:46:45;97643.19;;;16.43;36.18
12973;BME280;6551;51.056;9.466;2023-04-06T12:49:10;97642.63;;;16.72;36.44
12973;BME280;6551;51.056;9.466;2023-04-06T12:51:36;97641.75;;;16.99;35.72
12973;BME280;6551;51.056;9.466;2023-04-06T12:54:02;97641.78;;;16.67;36.97
12973;BME280;6551;51.056;9.466;2023-04-06T12:56:28;97639.09;;;16.35;35.97
12973;BME280;6551;51.056;9.466;2023-04-06T12:58:54;97642.66;;;16.46;35.90
12973;BME280;6551;51.056;9.466;2023-04-06T13:01:20;97626.41;;;16.57;36.04
12973;BME280;6551;51.056;9.466;2023-04-06T13:03:46;97629.47;;;16.76;36.06
12973;BME280;6551;51.056;9.466;2023-04-06T13:06:12;97624.56;;;16.63;35.47
12973;BME280;6551;51.056;9.466;2023-04-06T13:08:40;97635.09;;;17.16;35.98
12973;BME280;6551;51.056;9.466;2023-04-06T13:11:06;97623.16;;;17.02;34.61
12973;BME280;6551;51.056;9.466;2023-04-06T13:13:36;97618.03;;;16.90;35.61